sensor_id;sensor_type;location;lat;lon;timestamp;P1;durP1;ratioP1;P2;durP2;ratioP2
10082;SDS011;5080;48.528;8.078;2022-12-18T00:01:58;6.28;;;5.88;;
10082;SDS011;5080;48.528;8.078;2022-12-18T00:04:25;6.28;;;5.85;;
10082;SDS011;5080;48.528;8.078;2022-12-18T00:06:53;6.40;;;5.90;;
10082;SDS011;5080;48.528;8.078;2022-12-18T00:09:20;6.75;;;6.20;;
10082;SDS011;5080;48.528;8.078;2022-12-18T00:11:47;6.50;;;6.00;;
10082;SDS011;5080;48.528;8.078;2022-12-18T00:14:15;6.82;;;6.25;;
10082;SDS011;5080;48.528;8.078;2022-12-18T00:16:43;7.78;;;7.07;;
10082;SDS011;5080;48.528;8.078;2022-12-18T00:19:11;5.97;;;5.57;;
10082;SDS011;5080;48.528;8.078;2022-12-18T00:21:39;5.07;;;4.70;;
10082;SDS011;5080;48.528;8.078;2022-12-18T00:24:05;6.37;;;5.83;;
10082;SDS011;5080;48.528;8.078;2022-12-18T00:26:33;6.63;;;6.20;;
10082;SDS011;5080;48.528;8.078;2022-12-18T00:29:01;6.55;;;6.05;;
10082;SDS011;5080;48.528;8.078;2022-12-18T00:31:30;6.35;;;5.95;;
10082;SDS011;5080;48.528;8.078;2022-12-18T00:33:57;5.63;;;5.22;;
10082;SDS011;5080;48.528;8.078;2022-12-18T00:36:25;5.63;;;5.22;;
10082;SDS011;5080;48.528;8.078;2022-12-18T00:38:54;5.97;;;5.50;;
10082;SDS011;5080;48.528;8.078;2022-12-18T00:41:22;6.70;;;6.10;;
10082;SDS011;5080;48.528;8.078;2022-12-18T00:44:09;6.53;;;6.03;;
10082;SDS011;5080;48.528;8.078;2022-12-18T00:46:38;7.10;;;6.50;;
10082;SDS011;5080;48.528;8.078;2022-12-18T00:49:06;5.82;;;5.43;;
10082;SDS011;5080;48.528;8.078;2022-12-18T00:51:33;5.80;;;5.40;;
10082;SDS011;5080;48.528;8.078;2022-12-18T00:53:59;6.17;;;5.67;;
10082;SDS011;5080;48.528;8.078;2022-12-18T00:56:26;6.47;;;6.00;;
10082;SDS011;5080;48.528;8.078;2022-12-18T00:58:53;6.07;;;5.57;;
10082;SDS011;5080;48.528;8.078;2022-12-18T01:01:20;6.20;;;5.80;;
10082;SDS011;5080;48.528;8.078;2022-12-18T01:03:49;5.72;;;5.22;;
10082;SDS011;5080;48.528;8.078;2022-12-18T01:06:16;6.57;;;5.97;;
10082;SDS011;5080;48.528;8.078;2022-12-18T01:08:43;5.80;;;5.40;;
10082;SDS011;5080;48.528;8.078;2022-12-18T01:11:11;5.97;;;5.50;;
10082;SDS011;5080;48.528;8.078;2022-12-18T01:13:40;5.60;;;5.10;;
10082;SDS011;5080;48.528;8.078;2022-12-18T01:16:08;6.30;;;5.87;;
10082;SDS011;5080;48.528;8.078;2022-12-18T01:18:37;6.50;;;6.03;;
10082;SDS011;5080;48.528;8.078;2022-12-18T01:21:07;6.57;;;6.00;;
10082;SDS011;5080;48.528;8.078;2022-12-18T01:23:34;6.17;;;5.77;;
10082;SDS011;5080;48.528;8.078;2022-12-18T01:26:05;5.93;;;5.53;;
10082;SDS011;5080;48.528;8.078;2022-12-18T01:28:32;6.03;;;5.57;;
10082;SDS011;5080;48.528;8.078;2022-12-18T01:31:08;7.47;;;6.97;;
10082;SDS011;5080;48.528;8.078;2022-12-18T01:33:37;6.10;;;5.60;;
10082;SDS011;5080;48.528;8.078;2022-12-18T01:36:04;5.63;;;5.15;;
10082;SDS011;5080;48.528;8.078;2022-12-18T01:38:32;6.00;;;5.60;;
10082;SDS011;5080;48.528;8.078;2022-12-18T01:40:59;6.18;;;5.78;;
10082;SDS011;5080;48.528;8.078;2022-12-18T01:46:15;5.63;;;5.23;;
10082;SDS011;5080;48.528;8.078;2022-12-18T01:48:42;6.13;;;5.63;;
10082;SDS011;5080;48.528;8.078;2022-12-18T01:51:10;5.95;;;5.55;;
10082;SDS011;5080;48.528;8.078;2022-12-18T01:53:40;6.33;;;5.83;;
10082;SDS011;5080;48.528;8.078;2022-12-18T01:56:08;6.50;;;6.00;;
10082;SDS011;5080;48.528;8.078;2022-12-18T01:58:39;6.77;;;6.27;;
10082;SDS011;5080;48.528;8.078;2022-12-18T02:01:12;5.70;;;5.30;;
10082;SDS011;5080;48.528;8.078;2022-12-18T02:03:40;5.68;;;5.28;;
10082;SDS011;5080;48.528;8.078;2022-12-18T02:06:10;6.73;;;6.23;;
10082;SDS011;5080;48.528;8.078;2022-12-18T02:08:43;5.67;;;5.27;;
10082;SDS011;5080;48.528;8.078;2022-12-18T02:11:23;5.80;;;5.30;;
10082;SDS011;5080;48.528;8.078;2022-12-18T02:14:00;5.70;;;5.27;;
10082;SDS011;5080;48.528;8.078;2022-12-18T02:16:34;6.47;;;5.97;;
10082;SDS011;5080;48.528;8.078;2022-12-18T02:19:09;5.80;;;5.40;;
10082;SDS011;5080;48.528;8.078;2022-12-18T02:21:49;5.97;;;5.57;;
10082;SDS011;5080;48.528;8.078;2022-12-18T02:24:27;5.80;;;5.40;;
10082;SDS011;5080;48.528;8.078;2022-12-18T02:27:01;5.77;;;5.37;;
10082;SDS011;5080;48.528;8.078;2022-12-18T02:29:32;5.47;;;5.07;;
10082;SDS011;5080;48.528;8.078;2022-12-18T02:32:04;6.07;;;5.60;;
10082;SDS011;5080;48.528;8.078;2022-12-18T02:34:36;5.95;;;5.45;;
10082;SDS011;5080;48.528;8.078;2022-12-18T02:37:05;4.93;;;4.63;;
10082;SDS011;5080;48.528;8.078;2022-12-18T02:39:37;5.00;;;4.70;;
10082;SDS011;5080;48.528;8.078;2022-12-18T02:42:07;5.50;;;5.10;;
10082;SDS011;5080;48.528;8.078;2022-12-18T02:44:35;5.70;;;5.30;;
10082;SDS011;5080;48.528;8.078;2022-12-18T02:47:08;5.40;;;5.00;;
10082;SDS011;5080;48.528;8.078;2022-12-18T02:49:40;6.43;;;5.93;;
10082;SDS011;5080;48.528;8.078;2022-12-18T02:52:17;6.43;;;5.93;;
10082;SDS011;5080;48.528;8.078;2022-12-18T02:54:55;6.50;;;5.90;;
10082;SDS011;5080;48.528;8.078;2022-12-18T02:57:30;5.90;;;5.47;;
10082;SDS011;5080;48.528;8.078;2022-12-18T03:00:02;6.67;;;6.17;;
10082;SDS011;5080;48.528;8.078;2022-12-18T03:02:33;6.18;;;5.68;;
10082;SDS011;5080;48.528;8.078;2022-12-18T03:05:05;5.38;;;5.03;;
10082;SDS011;5080;48.528;8.078;2022-12-18T03:07:37;5.43;;;5.03;;
10082;SDS011;5080;48.528;8.078;2022-12-18T03:10:08;5.05;;;4.75;;
10082;SDS011;5080;48.528;8.078;2022-12-18T03:12:40;5.72;;;5.32;;
10082;SDS011;5080;48.528;8.078;2022-12-18T03:15:12;5.60;;;5.20;;
10082;SDS011;5080;48.528;8.078;2022-12-18T03:17:44;6.97;;;6.38;;
10082;SDS011;5080;48.528;8.078;2022-12-18T03:20:14;6.07;;;5.47;;
10082;SDS011;5080;48.528;8.078;2022-12-18T03:22:45;5.65;;;5.25;;
10082;SDS011;5080;48.528;8.078;2022-12-18T03:25:17;6.13;;;5.70;;
10082;SDS011;5080;48.528;8.078;2022-12-18T03:27:47;6.25;;;5.75;;
10082;SDS011;5080;48.528;8.078;2022-12-18T03:30:18;5.95;;;5.45;;
10082;SDS011;5080;48.528;8.078;2022-12-18T03:32:47;5.68;;;5.22;;
10082;SDS011;5080;48.528;8.078;2022-12-18T03:35:18;5.93;;;5.50;;
10082;SDS011;5080;48.528;8.078;2022-12-18T03:37:49;5.35;;;4.90;;
10082;SDS011;5080;48.528;8.078;2022-12-18T03:40:16;5.07;;;4.75;;
10082;SDS011;5080;48.528;8.078;2022-12-18T03:42:45;5.67;;;5.17;;
10082;SDS011;5080;48.528;8.078;2022-12-18T03:45:19;5.90;;;5.50;;
10082;SDS011;5080;48.528;8.078;2022-12-18T03:47:53;5.77;;;5.37;;
10082;SDS011;5080;48.528;8.078;2022-12-18T03:50:29;5.70;;;5.30;;
10082;SDS011;5080;48.528;8.078;2022-12-18T03:53:05;6.17;;;5.70;;
10082;SDS011;5080;48.528;8.078;2022-12-18T03:55:40;5.90;;;5.50;;
10082;SDS011;5080;48.528;8.078;2022-12-18T03:58:10;5.40;;;5.00;;
10082;SDS011;5080;48.528;8.078;2022-12-18T04:00:42;5.57;;;5.13;;
10082;SDS011;5080;48.528;8.078;2022-12-18T04:03:10;5.30;;;4.90;;
10082;SDS011;5080;48.528;8.078;2022-12-18T04:05:38;5.32;;;4.88;;
10082;SDS011;5080;48.528;8.078;2022-12-18T04:08:06;5.60;;;5.20;;
10082;SDS011;5080;48.528;8.078;2022-12-18T04:10:33;5.77;;;5.30;;
10082;SDS011;5080;48.528;8.078;2022-12-18T04:13:00;5.60;;;5.20;;
10082;SDS011;5080;48.528;8.078;2022-12-18T04:15:28;5.93;;;5.43;;
10082;SDS011;5080;48.528;8.078;2022-12-18T04:17:55;6.20;;;5.70;;
10082;SDS011;5080;48.528;8.078;2022-12-18T04:20:22;5.82;;;5.38;;
10082;SDS011;5080;48.528;8.078;2022-12-18T04:22:49;5.57;;;5.10;;
10082;SDS011;5080;48.528;8.078;2022-12-18T04:25:15;4.88;;;4.47;;
10082;SDS011;5080;48.528;8.078;2022-12-18T04:27:42;5.03;;;4.63;;
10082;SDS011;5080;48.528;8.078;2022-12-18T04:30:09;6.13;;;5.63;;
10082;SDS011;5080;48.528;8.078;2022-12-18T04:32:38;5.65;;;5.28;;
10082;SDS011;5080;48.528;8.078;2022-12-18T04:35:05;4.95;;;4.60;;
10082;SDS011;5080;48.528;8.078;2022-12-18T04:37:35;5.93;;;5.50;;
10082;SDS011;5080;48.528;8.078;2022-12-18T04:40:02;5.75;;;5.35;;
10082;SDS011;5080;48.528;8.078;2022-12-18T04:42:30;5.00;;;4.60;;
10082;SDS011;5080;48.528;8.078;2022-12-18T04:44:56;5.37;;;4.83;;
10082;SDS011;5080;48.528;8.078;2022-12-18T04:47:23;5.05;;;4.65;;
10082;SDS011;5080;48.528;8.078;2022-12-18T04:49:52;5.07;;;4.68;;
10082;SDS011;5080;48.528;8.078;2022-12-18T04:52:18;5.30;;;5.00;;
10082;SDS011;5080;48.528;8.078;2022-12-18T04:54:45;4.68;;;4.38;;
10082;SDS011;5080;48.528;8.078;2022-12-18T04:57:12;4.97;;;4.68;;
10082;SDS011;5080;48.528;8.078;2022-12-18T04:59:39;5.32;;;5.03;;
10082;SDS011;5080;48.528;8.078;2022-12-18T05:02:06;5.10;;;4.80;;
10082;SDS011;5080;48.528;8.078;2022-12-18T05:04:32;4.80;;;4.45;;
10082;SDS011;5080;48.528;8.078;2022-12-18T05:07:01;4.93;;;4.63;;
10082;SDS011;5080;48.528;8.078;2022-12-18T05:09:27;5.18;;;4.88;;
10082;SDS011;5080;48.528;8.078;2022-12-18T05:11:54;5.53;;;5.10;;
10082;SDS011;5080;48.528;8.078;2022-12-18T05:14:21;5.00;;;4.60;;
10082;SDS011;5080;48.528;8.078;2022-12-18T05:16:48;4.57;;;4.23;;
10082;SDS011;5080;48.528;8.078;2022-12-18T05:19:15;4.97;;;4.57;;
10082;SDS011;5080;48.528;8.078;2022-12-18T05:21:42;3.90;;;3.70;;
10082;SDS011;5080;48.528;8.078;2022-12-18T05:24:10;5.10;;;4.70;;
10082;SDS011;5080;48.528;8.078;2022-12-18T05:26:37;5.18;;;4.78;;
10082;SDS011;5080;48.528;8.078;2022-12-18T05:29:03;4.88;;;4.57;;
10082;SDS011;5080;48.528;8.078;2022-12-18T05:31:30;4.35;;;4.05;;
10082;SDS011;5080;48.528;8.078;2022-12-18T05:33:57;4.00;;;3.78;;
10082;SDS011;5080;48.528;8.078;2022-12-18T05:36:24;5.33;;;4.93;;
10082;SDS011;5080;48.528;8.078;2022-12-18T05:38:51;5.15;;;4.82;;
10082;SDS011;5080;48.528;8.078;2022-12-18T05:41:19;5.40;;;5.00;;
10082;SDS011;5080;48.528;8.078;2022-12-18T05:43:46;4.43;;;4.13;;
10082;SDS011;5080;48.528;8.078;2022-12-18T05:46:13;5.63;;;5.13;;
10082;SDS011;5080;48.528;8.078;2022-12-18T05:48:42;5.43;;;5.03;;
10082;SDS011;5080;48.528;8.078;2022-12-18T05:51:11;5.37;;;4.97;;
10082;SDS011;5080;48.528;8.078;2022-12-18T05:53:39;5.03;;;4.63;;
10082;SDS011;5080;48.528;8.078;2022-12-18T05:56:07;4.97;;;4.68;;
10082;SDS011;5080;48.528;8.078;2022-12-18T05:58:36;4.90;;;4.50;;
10082;SDS011;5080;48.528;8.078;2022-12-18T06:01:08;4.80;;;4.47;;
10082;SDS011;5080;48.528;8.078;2022-12-18T06:03:36;4.70;;;4.40;;
10082;SDS011;5080;48.528;8.078;2022-12-18T06:06:03;5.03;;;4.63;;
10082;SDS011;5080;48.528;8.078;2022-12-18T06:08:30;4.78;;;4.47;;
10082;SDS011;5080;48.528;8.078;2022-12-18T06:10:57;4.90;;;4.50;;
10082;SDS011;5080;48.528;8.078;2022-12-18T06:13:23;4.93;;;4.63;;
10082;SDS011;5080;48.528;8.078;2022-12-18T06:15:52;4.53;;;4.22;;
10082;SDS011;5080;48.528;8.078;2022-12-18T06:18:18;4.53;;;4.28;;
10082;SDS011;5080;48.528;8.078;2022-12-18T06:20:51;4.50;;;4.20;;
10082;SDS011;5080;48.528;8.078;2022-12-18T06:23:20;4.72;;;4.43;;
10082;SDS011;5080;48.528;8.078;2022-12-18T06:25:47;5.13;;;4.83;;
10082;SDS011;5080;48.528;8.078;2022-12-18T06:28:14;4.57;;;4.23;;
10082;SDS011;5080;48.528;8.078;2022-12-18T06:30:42;4.97;;;4.60;;
10082;SDS011;5080;48.528;8.078;2022-12-18T06:33:11;5.05;;;4.65;;
10082;SDS011;5080;48.528;8.078;2022-12-18T06:35:38;5.05;;;4.65;;
10082;SDS011;5080;48.528;8.078;2022-12-18T06:38:04;4.63;;;4.32;;
10082;SDS011;5080;48.528;8.078;2022-12-18T06:40:31;4.68;;;4.32;;
10082;SDS011;5080;48.528;8.078;2022-12-18T06:42:59;4.20;;;3.90;;
10082;SDS011;5080;48.528;8.078;2022-12-18T06:45:25;5.20;;;4.80;;
10082;SDS011;5080;48.528;8.078;2022-12-18T06:47:52;4.70;;;4.40;;
10082;SDS011;5080;48.528;8.078;2022-12-18T06:50:21;4.40;;;4.10;;
10082;SDS011;5080;48.528;8.078;2022-12-18T06:52:48;4.80;;;4.50;;
10082;SDS011;5080;48.528;8.078;2022-12-18T06:55:15;5.03;;;4.63;;
10082;SDS011;5080;48.528;8.078;2022-12-18T06:57:42;4.90;;;4.55;;
10082;SDS011;5080;48.528;8.078;2022-12-18T07:00:09;4.97;;;4.57;;
10082;SDS011;5080;48.528;8.078;2022-12-18T07:02:36;5.07;;;4.68;;
10082;SDS011;5080;48.528;8.078;2022-12-18T07:05:03;4.80;;;4.40;;
10082;SDS011;5080;48.528;8.078;2022-12-18T07:07:32;4.93;;;4.60;;
10082;SDS011;5080;48.528;8.078;2022-12-18T07:09:59;4.75;;;4.35;;
10082;SDS011;5080;48.528;8.078;2022-12-18T07:12:26;4.63;;;4.32;;
10082;SDS011;5080;48.528;8.078;2022-12-18T07:14:53;4.53;;;4.13;;
10082;SDS011;5080;48.528;8.078;2022-12-18T07:17:20;4.85;;;4.55;;
10082;SDS011;5080;48.528;8.078;2022-12-18T07:19:47;5.07;;;4.68;;
10082;SDS011;5080;48.528;8.078;2022-12-18T07:22:14;4.10;;;3.85;;
10082;SDS011;5080;48.528;8.078;2022-12-18T07:24:42;4.80;;;4.40;;
10082;SDS011;5080;48.528;8.078;2022-12-18T07:27:09;4.80;;;4.50;;
10082;SDS011;5080;48.528;8.078;2022-12-18T07:29:35;4.97;;;4.68;;
10082;SDS011;5080;48.528;8.078;2022-12-18T07:32:02;4.50;;;4.13;;
10082;SDS011;5080;48.528;8.078;2022-12-18T07:34:29;4.10;;;3.90;;
10082;SDS011;5080;48.528;8.078;2022-12-18T07:36:57;4.10;;;3.80;;
10082;SDS011;5080;48.528;8.078;2022-12-18T07:39:24;3.83;;;3.50;;
10082;SDS011;5080;48.528;8.078;2022-12-18T07:41:52;4.00;;;3.70;;
10082;SDS011;5080;48.528;8.078;2022-12-18T07:44:33;4.07;;;3.78;;
10082;SDS011;5080;48.528;8.078;2022-12-18T07:46:59;3.92;;;3.72;;
10082;SDS011;5080;48.528;8.078;2022-12-18T07:49:27;4.00;;;3.70;;
10082;SDS011;5080;48.528;8.078;2022-12-18T07:51:54;3.88;;;3.67;;
10082;SDS011;5080;48.528;8.078;2022-12-18T07:54:21;3.77;;;3.57;;
10082;SDS011;5080;48.528;8.078;2022-12-18T07:56:48;3.88;;;3.58;;
10082;SDS011;5080;48.528;8.078;2022-12-18T07:59:16;3.85;;;3.58;;
10082;SDS011;5080;48.528;8.078;2022-12-18T08:01:43;4.05;;;3.75;;
10082;SDS011;5080;48.528;8.078;2022-12-18T08:04:10;4.22;;;3.92;;
10082;SDS011;5080;48.528;8.078;2022-12-18T08:06:37;3.42;;;3.22;;
10082;SDS011;5080;48.528;8.078;2022-12-18T08:09:04;4.40;;;4.10;;
10082;SDS011;5080;48.528;8.078;2022-12-18T08:11:30;4.13;;;3.83;;
10082;SDS011;5080;48.528;8.078;2022-12-18T08:13:57;3.83;;;3.53;;
10082;SDS011;5080;48.528;8.078;2022-12-18T08:16:25;3.80;;;3.50;;
10082;SDS011;5080;48.528;8.078;2022-12-18T08:18:53;3.42;;;3.22;;
10082;SDS011;5080;48.528;8.078;2022-12-18T08:21:22;4.60;;;4.30;;
10082;SDS011;5080;48.528;8.078;2022-12-18T08:23:50;4.00;;;3.67;;
10082;SDS011;5080;48.528;8.078;2022-12-18T08:26:20;3.95;;;3.65;;
10082;SDS011;5080;48.528;8.078;2022-12-18T08:28:47;4.18;;;3.88;;
10082;SDS011;5080;48.528;8.078;2022-12-18T08:31:15;4.50;;;4.20;;
10082;SDS011;5080;48.528;8.078;2022-12-18T08:33:43;4.10;;;3.80;;
10082;SDS011;5080;48.528;8.078;2022-12-18T08:36:10;4.53;;;4.23;;
10082;SDS011;5080;48.528;8.078;2022-12-18T08:38:37;5.25;;;4.85;;
10082;SDS011;5080;48.528;8.078;2022-12-18T08:41:05;3.90;;;3.70;;
10082;SDS011;5080;48.528;8.078;2022-12-18T08:43:33;3.25;;;3.05;;
10082;SDS011;5080;48.528;8.078;2022-12-18T08:46:18;3.27;;;3.07;;
10082;SDS011;5080;48.528;8.078;2022-12-18T08:48:47;3.40;;;3.20;;
10082;SDS011;5080;48.528;8.078;2022-12-18T08:51:16;3.25;;;3.05;;
10082;SDS011;5080;48.528;8.078;2022-12-18T08:53:43;3.30;;;3.10;;
10082;SDS011;5080;48.528;8.078;2022-12-18T08:56:10;3.10;;;2.90;;
10082;SDS011;5080;48.528;8.078;2022-12-18T08:58:38;3.50;;;3.30;;
10082;SDS011;5080;48.528;8.078;2022-12-18T09:01:06;4.10;;;3.80;;
10082;SDS011;5080;48.528;8.078;2022-12-18T09:03:34;4.50;;;4.10;;
10082;SDS011;5080;48.528;8.078;2022-12-18T09:06:03;4.47;;;4.17;;
10082;SDS011;5080;48.528;8.078;2022-12-18T09:08:30;4.60;;;4.25;;
10082;SDS011;5080;48.528;8.078;2022-12-18T09:10:57;5.47;;;5.03;;
10082;SDS011;5080;48.528;8.078;2022-12-18T09:13:24;5.88;;;5.38;;
10082;SDS011;5080;48.528;8.078;2022-12-18T09:15:52;5.63;;;5.22;;
10082;SDS011;5080;48.528;8.078;2022-12-18T09:18:20;6.00;;;5.50;;
10082;SDS011;5080;48.528;8.078;2022-12-18T09:20:48;5.13;;;4.72;;
10082;SDS011;5080;48.528;8.078;2022-12-18T09:23:18;5.47;;;5.07;;
10082;SDS011;5080;48.528;8.078;2022-12-18T09:25:45;4.88;;;4.57;;
10082;SDS011;5080;48.528;8.078;2022-12-18T09:28:13;5.67;;;5.27;;
10082;SDS011;5080;48.528;8.078;2022-12-18T09:30:42;5.55;;;5.05;;
10082;SDS011;5080;48.528;8.078;2022-12-18T09:33:10;5.80;;;5.37;;
10082;SDS011;5080;48.528;8.078;2022-12-18T09:35:36;5.57;;;5.17;;
10082;SDS011;5080;48.528;8.078;2022-12-18T09:38:05;5.15;;;4.75;;
10082;SDS011;5080;48.528;8.078;2022-12-18T09:40:36;5.30;;;4.90;;
10082;SDS011;5080;48.528;8.078;2022-12-18T09:43:09;6.03;;;5.53;;
10082;SDS011;5080;48.528;8.078;2022-12-18T09:45:43;5.28;;;4.93;;
10082;SDS011;5080;48.528;8.078;2022-12-18T09:48:15;6.25;;;5.60;;
10082;SDS011;5080;48.528;8.078;2022-12-18T09:50:44;6.37;;;5.90;;
10082;SDS011;5080;48.528;8.078;2022-12-18T09:53:14;5.68;;;5.28;;
10082;SDS011;5080;48.528;8.078;2022-12-18T09:55:46;5.70;;;5.30;;
10082;SDS011;5080;48.528;8.078;2022-12-18T09:58:15;6.27;;;5.83;;
10082;SDS011;5080;48.528;8.078;2022-12-18T10:00:46;6.30;;;5.80;;
10082;SDS011;5080;48.528;8.078;2022-12-18T10:03:14;6.30;;;5.90;;
10082;SDS011;5080;48.528;8.078;2022-12-18T10:05:43;5.88;;;5.47;;
10082;SDS011;5080;48.528;8.078;2022-12-18T10:08:19;5.63;;;5.22;;
10082;SDS011;5080;48.528;8.078;2022-12-18T10:10:56;5.73;;;5.23;;
10082;SDS011;5080;48.528;8.078;2022-12-18T10:13:29;5.93;;;5.50;;
10082;SDS011;5080;48.528;8.078;2022-12-18T10:16:03;5.83;;;5.43;;
10082;SDS011;5080;48.528;8.078;2022-12-18T10:21:32;6.37;;;5.87;;
10082;SDS011;5080;48.528;8.078;2022-12-18T10:24:08;5.90;;;5.50;;
10082;SDS011;5080;48.528;8.078;2022-12-18T10:26:46;7.17;;;6.67;;
10082;SDS011;5080;48.528;8.078;2022-12-18T10:29:14;6.97;;;6.37;;
10082;SDS011;5080;48.528;8.078;2022-12-18T10:31:42;6.87;;;6.37;;
10082;SDS011;5080;48.528;8.078;2022-12-18T10:34:09;6.20;;;5.80;;
10082;SDS011;5080;48.528;8.078;2022-12-18T10:36:36;6.87;;;6.37;;
10082;SDS011;5080;48.528;8.078;2022-12-18T10:39:16;6.63;;;6.10;;
10082;SDS011;5080;48.528;8.078;2022-12-18T10:41:46;6.73;;;6.23;;
10082;SDS011;5080;48.528;8.078;2022-12-18T10:44:15;7.13;;;6.63;;
10082;SDS011;5080;48.528;8.078;2022-12-18T10:46:44;6.80;;;6.30;;
10082;SDS011;5080;48.528;8.078;2022-12-18T10:49:22;6.77;;;6.33;;
10082;SDS011;5080;48.528;8.078;2022-12-18T10:51:51;7.00;;;6.47;;
10082;SDS011;5080;48.528;8.078;2022-12-18T10:54:31;5.87;;;5.47;;
10082;SDS011;5080;48.528;8.078;2022-12-18T10:57:14;7.10;;;6.60;;
10082;SDS011;5080;48.528;8.078;2022-12-18T10:59:49;7.10;;;6.60;;
10082;SDS011;5080;48.528;8.078;2022-12-18T11:02:24;7.43;;;6.93;;
10082;SDS011;5080;48.528;8.078;2022-12-18T11:04:54;6.97;;;6.47;;
10082;SDS011;5080;48.528;8.078;2022-12-18T11:07:20;7.63;;;7.03;;
10082;SDS011;5080;48.528;8.078;2022-12-18T11:09:59;7.67;;;7.10;;
10082;SDS011;5080;48.528;8.078;2022-12-18T11:12:28;7.10;;;6.60;;
10082;SDS011;5080;48.528;8.078;2022-12-18T11:14:55;6.90;;;6.40;;
10082;SDS011;5080;48.528;8.078;2022-12-18T11:17:25;6.57;;;6.07;;
10082;SDS011;5080;48.528;8.078;2022-12-18T11:19:56;7.40;;;6.73;;
10082;SDS011;5080;48.528;8.078;2022-12-18T11:22:24;6.93;;;6.32;;
10082;SDS011;5080;48.528;8.078;2022-12-18T11:24:54;6.70;;;6.27;;
10082;SDS011;5080;48.528;8.078;2022-12-18T11:27:24;7.57;;;6.97;;
10082;SDS011;5080;48.528;8.078;2022-12-18T11:30:06;6.80;;;6.30;;
10082;SDS011;5080;48.528;8.078;2022-12-18T11:32:34;6.23;;;5.73;;
10082;SDS011;5080;48.528;8.078;2022-12-18T11:35:07;5.88;;;5.47;;
10082;SDS011;5080;48.528;8.078;2022-12-18T11:37:41;5.60;;;5.20;;
10082;SDS011;5080;48.528;8.078;2022-12-18T11:40:13;7.13;;;6.53;;
10082;SDS011;5080;48.528;8.078;2022-12-18T11:42:45;6.47;;;6.07;;
10082;SDS011;5080;48.528;8.078;2022-12-18T11:45:28;6.50;;;6.10;;
10082;SDS011;5080;48.528;8.078;2022-12-18T11:47:58;6.57;;;6.07;;
10082;SDS011;5080;48.528;8.078;2022-12-18T11:50:32;6.47;;;5.97;;
10082;SDS011;5080;48.528;8.078;2022-12-18T11:53:09;6.30;;;5.80;;
10082;SDS011;5080;48.528;8.078;2022-12-18T11:55:39;6.50;;;6.00;;
10082;SDS011;5080;48.528;8.078;2022-12-18T11:58:15;6.37;;;5.97;;
10082;SDS011;5080;48.528;8.078;2022-12-18T12:00:54;7.80;;;7.20;;
10082;SDS011;5080;48.528;8.078;2022-12-18T12:03:37;6.37;;;5.97;;
10082;SDS011;5080;48.528;8.078;2022-12-18T12:06:13;6.37;;;5.97;;
10082;SDS011;5080;48.528;8.078;2022-12-18T12:08:51;6.97;;;6.47;;
10082;SDS011;5080;48.528;8.078;2022-12-18T12:11:32;7.00;;;6.43;;
10082;SDS011;5080;48.528;8.078;2022-12-18T12:14:12;6.93;;;6.43;;
10082;SDS011;5080;48.528;8.078;2022-12-18T12:16:55;7.03;;;6.53;;
10082;SDS011;5080;48.528;8.078;2022-12-18T12:19:32;7.03;;;6.53;;
10082;SDS011;5080;48.528;8.078;2022-12-18T12:22:06;6.47;;;5.97;;
10082;SDS011;5080;48.528;8.078;2022-12-18T12:24:49;7.20;;;6.70;;
10082;SDS011;5080;48.528;8.078;2022-12-18T12:27:27;6.33;;;5.93;;
10082;SDS011;5080;48.528;8.078;2022-12-18T12:30:03;7.87;;;7.27;;
10082;SDS011;5080;48.528;8.078;2022-12-18T12:32:41;6.63;;;6.13;;
10082;SDS011;5080;48.528;8.078;2022-12-18T12:35:25;6.80;;;6.30;;
10082;SDS011;5080;48.528;8.078;2022-12-18T12:38:04;7.37;;;6.77;;
10082;SDS011;5080;48.528;8.078;2022-12-18T12:40:35;7.03;;;6.53;;
10082;SDS011;5080;48.528;8.078;2022-12-18T12:43:15;7.40;;;6.80;;
10082;SDS011;5080;48.528;8.078;2022-12-18T12:45:48;6.10;;;5.70;;
10082;SDS011;5080;48.528;8.078;2022-12-18T12:48:28;6.20;;;5.80;;
10082;SDS011;5080;48.528;8.078;2022-12-18T12:51:01;7.40;;;6.80;;
10082;SDS011;5080;48.528;8.078;2022-12-18T12:53:36;6.60;;;6.13;;
10082;SDS011;5080;48.528;8.078;2022-12-18T12:56:05;6.10;;;5.70;;
10082;SDS011;5080;48.528;8.078;2022-12-18T12:58:34;6.87;;;6.47;;
10082;SDS011;5080;48.528;8.078;2022-12-18T13:01:09;6.67;;;6.20;;
10082;SDS011;5080;48.528;8.078;2022-12-18T13:03:48;6.73;;;6.23;;
10082;SDS011;5080;48.528;8.078;2022-12-18T13:06:25;7.00;;;6.50;;
10082;SDS011;5080;48.528;8.078;2022-12-18T13:09:02;6.37;;;5.87;;
10082;SDS011;5080;48.528;8.078;2022-12-18T13:11:39;6.43;;;5.93;;
10082;SDS011;5080;48.528;8.078;2022-12-18T13:14:29;6.43;;;5.97;;
10082;SDS011;5080;48.528;8.078;2022-12-18T13:20:02;6.53;;;6.13;;
10082;SDS011;5080;48.528;8.078;2022-12-18T13:22:35;6.37;;;5.97;;
10082;SDS011;5080;48.528;8.078;2022-12-18T13:27:59;7.37;;;6.77;;
10082;SDS011;5080;48.528;8.078;2022-12-18T13:30:46;6.17;;;5.77;;
10082;SDS011;5080;48.528;8.078;2022-12-18T13:36:14;6.43;;;6.03;;
10082;SDS011;5080;48.528;8.078;2022-12-18T13:39:08;6.83;;;6.30;;
10082;SDS011;5080;48.528;8.078;2022-12-18T13:41:51;5.93;;;5.53;;
10082;SDS011;5080;48.528;8.078;2022-12-18T13:44:23;6.77;;;6.27;;
10082;SDS011;5080;48.528;8.078;2022-12-18T13:46:56;6.73;;;6.13;;
10082;SDS011;5080;48.528;8.078;2022-12-18T13:49:25;6.70;;;6.27;;
10082;SDS011;5080;48.528;8.078;2022-12-18T13:51:58;6.33;;;5.93;;
10082;SDS011;5080;48.528;8.078;2022-12-18T13:54:28;6.30;;;5.90;;
10082;SDS011;5080;48.528;8.078;2022-12-18T13:56:59;6.80;;;6.27;;
10082;SDS011;5080;48.528;8.078;2022-12-18T13:59:32;7.50;;;6.90;;
10082;SDS011;5080;48.528;8.078;2022-12-18T14:02:04;6.70;;;6.27;;
10082;SDS011;5080;48.528;8.078;2022-12-18T14:04:38;6.27;;;5.87;;
10082;SDS011;5080;48.528;8.078;2022-12-18T14:07:07;6.67;;;6.27;;
10082;SDS011;5080;48.528;8.078;2022-12-18T14:09:40;6.83;;;6.33;;
10082;SDS011;5080;48.528;8.078;2022-12-18T14:12:12;6.33;;;5.87;;
10082;SDS011;5080;48.528;8.078;2022-12-18T14:15:00;6.28;;;5.85;;
10082;SDS011;5080;48.528;8.078;2022-12-18T14:17:27;5.83;;;5.43;;
10082;SDS011;5080;48.528;8.078;2022-12-18T14:19:53;5.93;;;5.53;;
10082;SDS011;5080;48.528;8.078;2022-12-18T14:22:23;6.47;;;6.07;;
10082;SDS011;5080;48.528;8.078;2022-12-18T14:25:14;6.87;;;6.37;;
10082;SDS011;5080;48.528;8.078;2022-12-18T14:27:43;6.47;;;5.97;;
10082;SDS011;5080;48.528;8.078;2022-12-18T14:30:24;6.87;;;6.37;;
10082;SDS011;5080;48.528;8.078;2022-12-18T14:33:02;6.57;;;6.07;;
10082;SDS011;5080;48.528;8.078;2022-12-18T14:35:31;6.80;;;6.30;;
10082;SDS011;5080;48.528;8.078;2022-12-18T14:38:19;7.00;;;6.50;;
10082;SDS011;5080;48.528;8.078;2022-12-18T14:40:51;6.70;;;6.17;;
10082;SDS011;5080;48.528;8.078;2022-12-18T14:43:19;8.13;;;7.53;;
10082;SDS011;5080;48.528;8.078;2022-12-18T14:45:46;7.30;;;6.80;;
10082;SDS011;5080;48.528;8.078;2022-12-18T14:48:15;7.33;;;6.83;;
10082;SDS011;5080;48.528;8.078;2022-12-18T14:50:44;7.37;;;6.87;;
10082;SDS011;5080;48.528;8.078;2022-12-18T14:53:21;7.40;;;6.80;;
10082;SDS011;5080;48.528;8.078;2022-12-18T14:55:53;6.40;;;6.00;;
10082;SDS011;5080;48.528;8.078;2022-12-18T14:58:20;6.00;;;5.60;;
10082;SDS011;5080;48.528;8.078;2022-12-18T15:00:48;7.77;;;7.17;;
10082;SDS011;5080;48.528;8.078;2022-12-18T15:03:17;7.37;;;6.77;;
10082;SDS011;5080;48.528;8.078;2022-12-18T15:05:45;7.57;;;7.07;;
10082;SDS011;5080;48.528;8.078;2022-12-18T15:08:35;7.10;;;6.60;;
10082;SDS011;5080;48.528;8.078;2022-12-18T15:11:03;7.50;;;6.93;;
10082;SDS011;5080;48.528;8.078;2022-12-18T15:13:45;8.43;;;7.80;;
10082;SDS011;5080;48.528;8.078;2022-12-18T15:16:11;7.13;;;6.63;;
10082;SDS011;5080;48.528;8.078;2022-12-18T15:18:41;6.77;;;6.27;;
10082;SDS011;5080;48.528;8.078;2022-12-18T15:21:11;7.50;;;7.00;;
10082;SDS011;5080;48.528;8.078;2022-12-18T15:23:46;7.43;;;6.93;;
10082;SDS011;5080;48.528;8.078;2022-12-18T15:26:16;7.77;;;7.10;;
10082;SDS011;5080;48.528;8.078;2022-12-18T15:28:46;7.70;;;7.20;;
10082;SDS011;5080;48.528;8.078;2022-12-18T15:31:22;7.30;;;6.80;;
10082;SDS011;5080;48.528;8.078;2022-12-18T15:36:45;7.33;;;6.83;;
10082;SDS011;5080;48.528;8.078;2022-12-18T15:39:14;7.67;;;7.17;;